sensor_id;sensor_type;location;lat;lon;timestamp;temperature;humidity
20045;DHT22;10183;47.808;9.476;2022-08-21T00:01:24;14.20;99.90
20045;DHT22;10183;47.808;9.476;2022-08-21T00:03:51;14.20;99.90
20045;DHT22;10183;47.808;9.476;2022-08-21T00:06:17;14.20;99.90
20045;DHT22;10183;47.808;9.476;2022-08-21T00:08:44;14.30;99.90
20045;DHT22;10183;47.808;9.476;2022-08-21T00:11:10;14.30;99.90
20045;DHT22;10183;47.808;9.476;2022-08-21T00:13:39;14.10;99.90
20045;DHT22;10183;47.808;9.476;2022-08-21T00:16:06;13.80;99.90
20045;DHT22;10183;47.808;9.476;2022-08-21T00:18:32;13.70;99.90
20045;DHT22;10183;47.808;9.476;2022-08-21T00:20:59;13.70;99.90
20045;DHT22;10183;47.808;9.476;2022-08-21T00:23:25;13.70;99.90
20045;DHT22;10183;47.808;9.476;2022-08-21T00:25:51;13.80;99.90
20045;DHT22;10183;47.808;9.476;2022-08-21T00:28:18;13.90;99.90
20045;DHT22;10183;47.808;9.476;2022-08-21T00:30:44;13.70;99.90
20045;DHT22;10183;47.808;9.476;2022-08-21T00:33:11;13.40;99.90
20045;DHT22;10183;47.808;9.476;2022-08-21T00:35:40;13.40;99.90
20045;DHT22;10183;47.808;9.476;2022-08-21T00:38:08;13.40;99.90
20045;DHT22;10183;47.808;9.476;2022-08-21T00:43:10;13.30;99.90
20045;DHT22;10183;47.808;9.476;2022-08-21T00:45:36;13.40;99.90
20045;DHT22;10183;47.808;9.476;2022-08-21T00:48:03;13.50;99.90
20045;DHT22;10183;47.808;9.476;2022-08-21T00:50:32;13.60;99.90
20045;DHT22;10183;47.808;9.476;2022-08-21T00:53:00;13.70;99.90
20045;DHT22;10183;47.808;9.476;2022-08-21T00:55:28;13.70;99.90
20045;DHT22;10183;47.808;9.476;2022-08-21T00:57:57;13.50;99.90
20045;DHT22;10183;47.808;9.476;2022-08-21T01:00:30;13.50;99.90
20045;DHT22;10183;47.808;9.476;2022-08-21T01:02:58;13.60;99.90
20045;DHT22;10183;47.808;9.476;2022-08-21T01:05:25;13.70;99.90
20045;DHT22;10183;47.808;9.476;2022-08-21T01:07:53;13.80;99.90
20045;DHT22;10183;47.808;9.476;2022-08-21T01:10:19;13.90;99.90
20045;DHT22;10183;47.808;9.476;2022-08-21T01:12:46;14.10;99.90
20045;DHT22;10183;47.808;9.476;2022-08-21T01:15:12;14.20;99.90
20045;DHT22;10183;47.808;9.476;2022-08-21T01:17:41;14.40;99.90
20045;DHT22;10183;47.808;9.476;2022-08-21T01:20:09;14.50;99.90
20045;DHT22;10183;47.808;9.476;2022-08-21T01:22:35;14.50;99.90
20045;DHT22;10183;47.808;9.476;2022-08-21T01:25:04;14.60;99.90
20045;DHT22;10183;47.808;9.476;2022-08-21T01:27:31;14.70;99.90
20045;DHT22;10183;47.808;9.476;2022-08-21T01:30:03;14.70;99.90
20045;DHT22;10183;47.808;9.476;2022-08-21T01:32:30;14.70;99.90
20045;DHT22;10183;47.808;9.476;2022-08-21T01:34:56;14.80;99.90
20045;DHT22;10183;47.808;9.476;2022-08-21T01:37:23;14.90;99.90
20045;DHT22;10183;47.808;9.476;2022-08-21T01:39:49;15.00;99.90
20045;DHT22;10183;47.808;9.476;2022-08-21T01:42:15;15.20;99.90
20045;DHT22;10183;47.808;9.476;2022-08-21T01:44:42;15.30;99.90
20045;DHT22;10183;47.808;9.476;2022-08-21T01:47:10;15.40;99.90
20045;DHT22;10183;47.808;9.476;2022-08-21T01:49:37;15.30;99.90
20045;DHT22;10183;47.808;9.476;2022-08-21T01:52:05;15.30;99.90
20045;DHT22;10183;47.808;9.476;2022-08-21T01:54:31;15.30;99.90
20045;DHT22;10183;47.808;9.476;2022-08-21T01:56:58;15.30;99.90
20045;DHT22;10183;47.808;9.476;2022-08-21T01:59:24;15.40;99.90
20045;DHT22;10183;47.808;9.476;2022-08-21T02:01:51;15.40;99.90
20045;DHT22;10183;47.808;9.476;2022-08-21T02:04:17;15.50;99.90
20045;DHT22;10183;47.808;9.476;2022-08-21T02:06:43;15.50;99.90
20045;DHT22;10183;47.808;9.476;2022-08-21T02:09:11;15.50;99.90
20045;DHT22;10183;47.808;9.476;2022-08-21T02:11:37;15.50;99.90
20045;DHT22;10183;47.808;9.476;2022-08-21T02:14:08;15.50;99.90
20045;DHT22;10183;47.808;9.476;2022-08-21T02:16:35;15.50;99.90
20045;DHT22;10183;47.808;9.476;2022-08-21T02:19:01;15.50;99.90
20045;DHT22;10183;47.808;9.476;2022-08-21T02:21:27;15.50;99.90
20045;DHT22;10183;47.808;9.476;2022-08-21T02:23:53;15.60;99.90
20045;DHT22;10183;47.808;9.476;2022-08-21T02:26:20;15.70;99.90
20045;DHT22;10183;47.808;9.476;2022-08-21T02:28:46;15.60;99.90
20045;DHT22;10183;47.808;9.476;2022-08-21T02:31:12;15.60;99.90
20045;DHT22;10183;47.808;9.476;2022-08-21T02:33:39;15.60;99.90
20045;DHT22;10183;47.808;9.476;2022-08-21T02:36:06;15.70;99.90
20045;DHT22;10183;47.808;9.476;2022-08-21T02:38:34;15.60;99.90
20045;DHT22;10183;47.808;9.476;2022-08-21T02:41:06;15.60;99.90
20045;DHT22;10183;47.808;9.476;2022-08-21T02:43:33;15.60;99.90
20045;DHT22;10183;47.808;9.476;2022-08-21T02:46:00;15.50;99.90
20045;DHT22;10183;47.808;9.476;2022-08-21T02:48:29;15.50;99.90
20045;DHT22;10183;47.808;9.476;2022-08-21T02:51:14;15.50;99.90
20045;DHT22;10183;47.808;9.476;2022-08-21T02:53:41;15.60;99.90
20045;DHT22;10183;47.808;9.476;2022-08-21T02:56:10;15.60;99.90
20045;DHT22;10183;47.808;9.476;2022-08-21T02:58:40;15.50;99.90
20045;DHT22;10183;47.808;9.476;2022-08-21T03:01:08;15.50;99.90
20045;DHT22;10183;47.808;9.476;2022-08-21T03:03:36;15.50;99.90
20045;DHT22;10183;47.808;9.476;2022-08-21T03:06:05;15.40;99.90
20045;DHT22;10183;47.808;9.476;2022-08-21T03:08:31;15.40;99.90
20045;DHT22;10183;47.808;9.476;2022-08-21T03:10:57;15.40;99.90
20045;DHT22;10183;47.808;9.476;2022-08-21T03:13:25;15.40;99.90
20045;DHT22;10183;47.808;9.476;2022-08-21T03:15:51;15.50;99.90
20045;DHT22;10183;47.808;9.476;2022-08-21T03:18:18;15.50;99.90
20045;DHT22;10183;47.808;9.476;2022-08-21T03:20:44;15.60;99.90
20045;DHT22;10183;47.808;9.476;2022-08-21T03:23:14;15.40;99.90
20045;DHT22;10183;47.808;9.476;2022-08-21T03:25:41;15.30;99.90
20045;DHT22;10183;47.808;9.476;2022-08-21T03:28:17;15.30;99.90
20045;DHT22;10183;47.808;9.476;2022-08-21T03:30:44;15.40;99.90
20045;DHT22;10183;47.808;9.476;2022-08-21T03:33:11;15.40;99.90
20045;DHT22;10183;47.808;9.476;2022-08-21T03:35:37;15.40;99.90
20045;DHT22;10183;47.808;9.476;2022-08-21T03:38:03;15.40;99.90
20045;DHT22;10183;47.808;9.476;2022-08-21T03:40:29;15.40;99.90
20045;DHT22;10183;47.808;9.476;2022-08-21T03:42:55;15.30;99.90
20045;DHT22;10183;47.808;9.476;2022-08-21T03:45:22;15.30;99.90
20045;DHT22;10183;47.808;9.476;2022-08-21T03:47:58;15.30;99.90
20045;DHT22;10183;47.808;9.476;2022-08-21T03:50:28;15.30;99.90
20045;DHT22;10183;47.808;9.476;2022-08-21T03:52:55;15.20;99.90
20045;DHT22;10183;47.808;9.476;2022-08-21T03:55:22;15.20;99.90
20045;DHT22;10183;47.808;9.476;2022-08-21T03:57:49;15.20;99.90
20045;DHT22;10183;47.808;9.476;2022-08-21T04:00:16;15.20;99.90
20045;DHT22;10183;47.808;9.476;2022-08-21T04:02:43;15.20;99.90
20045;DHT22;10183;47.808;9.476;2022-08-21T04:05:11;15.20;99.90
20045;DHT22;10183;47.808;9.476;2022-08-21T04:07:40;15.20;99.90
20045;DHT22;10183;47.808;9.476;2022-08-21T04:10:06;15.20;99.90
20045;DHT22;10183;47.808;9.476;2022-08-21T04:12:33;15.20;99.90
20045;DHT22;10183;47.808;9.476;2022-08-21T04:14:59;15.30;99.90
20045;DHT22;10183;47.808;9.476;2022-08-21T04:17:27;15.30;99.90
20045;DHT22;10183;47.808;9.476;2022-08-21T04:19:53;15.30;99.90
20045;DHT22;10183;47.808;9.476;2022-08-21T04:22:20;15.30;99.90
20045;DHT22;10183;47.808;9.476;2022-08-21T04:24:46;15.20;99.90
20045;DHT22;10183;47.808;9.476;2022-08-21T04:27:12;15.30;99.90
20045;DHT22;10183;47.808;9.476;2022-08-21T04:29:38;15.30;99.90
20045;DHT22;10183;47.808;9.476;2022-08-21T04:32:05;15.40;99.90
20045;DHT22;10183;47.808;9.476;2022-08-21T04:34:31;15.40;99.90
20045;DHT22;10183;47.808;9.476;2022-08-21T04:36:57;15.40;99.90
20045;DHT22;10183;47.808;9.476;2022-08-21T04:39:23;15.40;99.90
20045;DHT22;10183;47.808;9.476;2022-08-21T04:41:50;15.40;99.90
20045;DHT22;10183;47.808;9.476;2022-08-21T04:44:16;15.30;99.90
20045;DHT22;10183;47.808;9.476;2022-08-21T04:46:42;15.30;99.90
20045;DHT22;10183;47.808;9.476;2022-08-21T04:49:08;15.40;99.90
20045;DHT22;10183;47.808;9.476;2022-08-21T04:51:37;15.30;99.90
20045;DHT22;10183;47.808;9.476;2022-08-21T04:54:13;15.40;99.90
20045;DHT22;10183;47.808;9.476;2022-08-21T04:56:49;15.30;99.90
20045;DHT22;10183;47.808;9.476;2022-08-21T04:59:20;15.30;99.90
20045;DHT22;10183;47.808;9.476;2022-08-21T05:01:47;15.20;99.90
20045;DHT22;10183;47.808;9.476;2022-08-21T05:04:16;15.20;99.90
20045;DHT22;10183;47.808;9.476;2022-08-21T05:06:46;15.30;99.90
20045;DHT22;10183;47.808;9.476;2022-08-21T05:09:15;15.30;99.90
20045;DHT22;10183;47.808;9.476;2022-08-21T05:11:43;15.40;99.90
20045;DHT22;10183;47.808;9.476;2022-08-21T05:14:10;15.50;99.90
20045;DHT22;10183;47.808;9.476;2022-08-21T05:16:37;15.70;99.90
20045;DHT22;10183;47.808;9.476;2022-08-21T05:19:05;15.70;99.90
20045;DHT22;10183;47.808;9.476;2022-08-21T05:21:39;15.80;99.90
20045;DHT22;10183;47.808;9.476;2022-08-21T05:24:05;15.70;99.90
20045;DHT22;10183;47.808;9.476;2022-08-21T05:26:32;15.70;99.90
20045;DHT22;10183;47.808;9.476;2022-08-21T05:28:58;15.60;99.90
20045;DHT22;10183;47.808;9.476;2022-08-21T05:31:25;15.60;99.90
20045;DHT22;10183;47.808;9.476;2022-08-21T05:33:51;15.70;99.90
20045;DHT22;10183;47.808;9.476;2022-08-21T05:36:18;15.50;99.90
20045;DHT22;10183;47.808;9.476;2022-08-21T05:38:45;15.60;99.90
20045;DHT22;10183;47.808;9.476;2022-08-21T05:41:11;15.50;99.90
20045;DHT22;10183;47.808;9.476;2022-08-21T05:43:37;15.70;99.90
20045;DHT22;10183;47.808;9.476;2022-08-21T05:46:04;15.70;99.90
20045;DHT22;10183;47.808;9.476;2022-08-21T05:48:32;15.80;99.90
20045;DHT22;10183;47.808;9.476;2022-08-21T05:51:08;16.00;99.90
20045;DHT22;10183;47.808;9.476;2022-08-21T05:53:35;16.00;99.90
20045;DHT22;10183;47.808;9.476;2022-08-21T05:56:02;16.10;99.90
20045;DHT22;10183;47.808;9.476;2022-08-21T05:58:31;15.90;99.90
20045;DHT22;10183;47.808;9.476;2022-08-21T06:00:59;15.70;99.90
20045;DHT22;10183;47.808;9.476;2022-08-21T06:03:29;15.50;99.90
20045;DHT22;10183;47.808;9.476;2022-08-21T06:05:56;15.60;99.90
20045;DHT22;10183;47.808;9.476;2022-08-21T06:08:23;15.80;99.90
20045;DHT22;10183;47.808;9.476;2022-08-21T06:10:51;16.00;99.90
20045;DHT22;10183;47.808;9.476;2022-08-21T06:13:19;15.90;99.90
20045;DHT22;10183;47.808;9.476;2022-08-21T06:15:45;16.10;99.90
20045;DHT22;10183;47.808;9.476;2022-08-21T06:18:12;16.30;99.90
20045;DHT22;10183;47.808;9.476;2022-08-21T06:20:39;16.50;99.90
20045;DHT22;10183;47.808;9.476;2022-08-21T06:23:05;16.60;99.90
20045;DHT22;10183;47.808;9.476;2022-08-21T06:25:31;16.60;99.90
20045;DHT22;10183;47.808;9.476;2022-08-21T06:28:06;16.60;99.90
20045;DHT22;10183;47.808;9.476;2022-08-21T06:30:33;16.60;99.90
20045;DHT22;10183;47.808;9.476;2022-08-21T06:32:59;16.40;99.90
20045;DHT22;10183;47.808;9.476;2022-08-21T06:35:25;16.80;99.90
20045;DHT22;10183;47.808;9.476;2022-08-21T06:37:52;17.00;99.90
20045;DHT22;10183;47.808;9.476;2022-08-21T06:40:18;16.50;99.90
20045;DHT22;10183;47.808;9.476;2022-08-21T06:42:44;16.10;99.90
20045;DHT22;10183;47.808;9.476;2022-08-21T06:45:10;16.00;99.90
20045;DHT22;10183;47.808;9.476;2022-08-21T06:47:37;16.10;99.90
20045;DHT22;10183;47.808;9.476;2022-08-21T06:50:04;16.50;99.90
20045;DHT22;10183;47.808;9.476;2022-08-21T06:52:30;16.90;99.90
20045;DHT22;10183;47.808;9.476;2022-08-21T06:54:56;16.80;99.90
20045;DHT22;10183;47.808;9.476;2022-08-21T06:57:22;16.80;99.90
20045;DHT22;10183;47.808;9.476;2022-08-21T06:59:48;16.80;99.90
20045;DHT22;10183;47.808;9.476;2022-08-21T07:02:15;17.30;99.90
20045;DHT22;10183;47.808;9.476;2022-08-21T07:04:41;17.40;99.90
20045;DHT22;10183;47.808;9.476;2022-08-21T07:07:07;17.60;99.90
20045;DHT22;10183;47.808;9.476;2022-08-21T07:09:33;17.80;99.90
20045;DHT22;10183;47.808;9.476;2022-08-21T07:11:59;17.50;99.90
20045;DHT22;10183;47.808;9.476;2022-08-21T07:14:26;17.00;99.90
20045;DHT22;10183;47.808;9.476;2022-08-21T07:16:52;16.80;99.90
20045;DHT22;10183;47.808;9.476;2022-08-21T07:19:19;17.10;99.90
20045;DHT22;10183;47.808;9.476;2022-08-21T07:21:45;17.20;99.90
20045;DHT22;10183;47.808;9.476;2022-08-21T07:24:12;17.30;99.90
20045;DHT22;10183;47.808;9.476;2022-08-21T07:26:39;17.50;99.90
20045;DHT22;10183;47.808;9.476;2022-08-21T07:29:05;17.40;99.90
20045;DHT22;10183;47.808;9.476;2022-08-21T07:31:31;17.60;99.90
20045;DHT22;10183;47.808;9.476;2022-08-21T07:33:57;17.20;99.90
20045;DHT22;10183;47.808;9.476;2022-08-21T07:36:24;17.50;99.90
20045;DHT22;10183;47.808;9.476;2022-08-21T07:38:50;17.70;99.90
20045;DHT22;10183;47.808;9.476;2022-08-21T07:41:20;17.70;99.90
20045;DHT22;10183;47.808;9.476;2022-08-21T07:43:47;17.80;99.90
20045;DHT22;10183;47.808;9.476;2022-08-21T07:46:14;18.00;99.90
20045;DHT22;10183;47.808;9.476;2022-08-21T07:48:41;18.00;99.90
20045;DHT22;10183;47.808;9.476;2022-08-21T07:51:09;18.00;99.90
20045;DHT22;10183;47.808;9.476;2022-08-21T07:53:37;17.60;99.90
20045;DHT22;10183;47.808;9.476;2022-08-21T07:56:04;17.50;99.90
20045;DHT22;10183;47.808;9.476;2022-08-21T07:58:31;17.60;99.90
20045;DHT22;10183;47.808;9.476;2022-08-21T08:00:58;17.90;99.90
20045;DHT22;10183;47.808;9.476;2022-08-21T08:03:24;18.00;99.90
20045;DHT22;10183;47.808;9.476;2022-08-21T08:05:51;18.20;99.90
20045;DHT22;10183;47.808;9.476;2022-08-21T08:08:17;18.50;99.90
20045;DHT22;10183;47.808;9.476;2022-08-21T08:10:43;18.60;99.90
20045;DHT22;10183;47.808;9.476;2022-08-21T08:13:10;18.80;99.90
20045;DHT22;10183;47.808;9.476;2022-08-21T08:15:37;19.00;99.90
20045;DHT22;10183;47.808;9.476;2022-08-21T08:18:03;19.30;99.90
20045;DHT22;10183;47.808;9.476;2022-08-21T08:20:30;19.50;99.90
20045;DHT22;10183;47.808;9.476;2022-08-21T08:22:56;19.30;99.90
20045;DHT22;10183;47.808;9.476;2022-08-21T08:25:23;19.60;99.90
20045;DHT22;10183;47.808;9.476;2022-08-21T08:27:50;19.80;99.90
20045;DHT22;10183;47.808;9.476;2022-08-21T08:30:17;20.00;99.90
20045;DHT22;10183;47.808;9.476;2022-08-21T08:32:45;20.10;99.90
20045;DHT22;10183;47.808;9.476;2022-08-21T08:35:11;20.30;99.90
20045;DHT22;10183;47.808;9.476;2022-08-21T08:37:38;19.90;99.90
20045;DHT22;10183;47.808;9.476;2022-08-21T08:40:11;19.50;99.90
20045;DHT22;10183;47.808;9.476;2022-08-21T08:42:38;19.10;99.90
20045;DHT22;10183;47.808;9.476;2022-08-21T08:45:16;19.00;99.90
20045;DHT22;10183;47.808;9.476;2022-08-21T08:47:46;19.00;99.90
20045;DHT22;10183;47.808;9.476;2022-08-21T08:50:19;19.20;99.90
20045;DHT22;10183;47.808;9.476;2022-08-21T08:53:22;19.20;99.90
20045;DHT22;10183;47.808;9.476;2022-08-21T08:55:51;19.40;99.90
20045;DHT22;10183;47.808;9.476;2022-08-21T08:58:28;19.80;99.90
20045;DHT22;10183;47.808;9.476;2022-08-21T09:00:56;20.10;99.90
20045;DHT22;10183;47.808;9.476;2022-08-21T09:03:24;20.10;99.90
20045;DHT22;10183;47.808;9.476;2022-08-21T09:08:56;20.50;99.90
20045;DHT22;10183;47.808;9.476;2022-08-21T09:11:29;20.20;99.90
20045;DHT22;10183;47.808;9.476;2022-08-21T09:14:36;20.50;99.90
20045;DHT22;10183;47.808;9.476;2022-08-21T09:17:27;21.00;99.90
20045;DHT22;10183;47.808;9.476;2022-08-21T09:20:29;21.00;99.90
20045;DHT22;10183;47.808;9.476;2022-08-21T09:23:12;21.20;99.90
20045;DHT22;10183;47.808;9.476;2022-08-21T09:25:51;20.80;99.90
20045;DHT22;10183;47.808;9.476;2022-08-21T09:28:20;20.70;99.90
20045;DHT22;10183;47.808;9.476;2022-08-21T09:30:47;20.40;99.90
20045;DHT22;10183;47.808;9.476;2022-08-21T09:33:13;20.80;99.90
20045;DHT22;10183;47.808;9.476;2022-08-21T09:35:50;21.30;99.90
20045;DHT22;10183;47.808;9.476;2022-08-21T09:38:26;21.70;99.90
20045;DHT22;10183;47.808;9.476;2022-08-21T09:40:59;21.70;99.90
20045;DHT22;10183;47.808;9.476;2022-08-21T09:43:27;21.90;99.90
20045;DHT22;10183;47.808;9.476;2022-08-21T09:46:04;21.70;99.90
20045;DHT22;10183;47.808;9.476;2022-08-21T09:48:45;21.30;99.90
20045;DHT22;10183;47.808;9.476;2022-08-21T09:51:22;20.80;99.90
20045;DHT22;10183;47.808;9.476;2022-08-21T09:56:29;21.00;99.90
20045;DHT22;10183;47.808;9.476;2022-08-21T09:59:23;20.50;99.90
20045;DHT22;10183;47.808;9.476;2022-08-21T10:01:51;20.60;99.90
20045;DHT22;10183;47.808;9.476;2022-08-21T10:04:23;20.60;99.90
20045;DHT22;10183;47.808;9.476;2022-08-21T10:06:49;21.20;99.90
20045;DHT22;10183;47.808;9.476;2022-08-21T10:09:18;22.00;99.90
20045;DHT22;10183;47.808;9.476;2022-08-21T10:12:05;22.40;99.90
20045;DHT22;10183;47.808;9.476;2022-08-21T10:17:08;23.10;99.90
20045;DHT22;10183;47.808;9.476;2022-08-21T10:25:23;23.40;99.90
20045;DHT22;10183;47.808;9.476;2022-08-21T10:35:59;22.90;99.90
20045;DHT22;10183;47.808;9.476;2022-08-21T10:38:58;22.80;99.90
20045;DHT22;10183;47.808;9.476;2022-08-21T10:47:37;23.30;99.90
20045;DHT22;10183;47.808;9.476;2022-08-21T10:55:43;21.80;99.90
20045;DHT22;10183;47.808;9.476;2022-08-21T10:58:11;22.10;99.90
20045;DHT22;10183;47.808;9.476;2022-08-21T11:00:44;23.10;99.90
20045;DHT22;10183;47.808;9.476;2022-08-21T11:06:04;23.60;99.90
20045;DHT22;10183;47.808;9.476;2022-08-21T11:08:33;24.50;99.90
20045;DHT22;10183;47.808;9.476;2022-08-21T11:11:05;25.00;99.90
20045;DHT22;10183;47.808;9.476;2022-08-21T11:13:45;25.60;99.90
20045;DHT22;10183;47.808;9.476;2022-08-21T11:18:49;25.90;99.90
20045;DHT22;10183;47.808;9.476;2022-08-21T11:21:52;26.20;99.90
20045;DHT22;10183;47.808;9.476;2022-08-21T11:30:00;24.70;99.90
20045;DHT22;10183;47.808;9.476;2022-08-21T11:32:32;24.70;99.90
20045;DHT22;10183;47.808;9.476;2022-08-21T11:41:28;26.00;99.90
20045;DHT22;10183;47.808;9.476;2022-08-21T11:46:49;26.50;99.90
20045;DHT22;10183;47.808;9.476;2022-08-21T11:49:39;27.20;99.90
20045;DHT22;10183;47.808;9.476;2022-08-21T11:52:12;26.70;99.90
20045;DHT22;10183;47.808;9.476;2022-08-21T11:57:29;24.70;99.90
20045;DHT22;10183;47.808;9.476;2022-08-21T12:00:05;24.40;99.90
20045;DHT22;10183;47.808;9.476;2022-08-21T12:02:38;25.90;99.90
20045;DHT22;10183;47.808;9.476;2022-08-21T12:05:09;26.40;99.90
20045;DHT22;10183;47.808;9.476;2022-08-21T12:08:10;26.60;99.90
20045;DHT22;10183;47.808;9.476;2022-08-21T12:10:40;26.30;99.90
20045;DHT22;10183;47.808;9.476;2022-08-21T12:13:31;25.90;99.90
20045;DHT22;10183;47.808;9.476;2022-08-21T12:16:12;25.60;99.90
20045;DHT22;10183;47.808;9.476;2022-08-21T12:18:40;25.40;99.90
20045;DHT22;10183;47.808;9.476;2022-08-21T12:21:27;25.30;99.90
20045;DHT22;10183;47.808;9.476;2022-08-21T12:26:55;25.20;99.90
20045;DHT22;10183;47.808;9.476;2022-08-21T12:29:31;25.20;99.90
20045;DHT22;10183;47.808;9.476;2022-08-21T12:32:29;25.20;99.90
20045;DHT22;10183;47.808;9.476;2022-08-21T12:35:08;25.20;99.90
20045;DHT22;10183;47.808;9.476;2022-08-21T12:37:56;25.40;99.90
20045;DHT22;10183;47.808;9.476;2022-08-21T12:40:27;26.40;99.90
20045;DHT22;10183;47.808;9.476;2022-08-21T12:42:59;27.30;99.90
20045;DHT22;10183;47.808;9.476;2022-08-21T12:45:33;28.20;99.90
20045;DHT22;10183;47.808;9.476;2022-08-21T12:48:11;29.30;99.90
20045;DHT22;10183;47.808;9.476;2022-08-21T12:50:48;30.10;96.80
20045;DHT22;10183;47.808;9.476;2022-08-21T12:56:04;31.20;87.40
20045;DHT22;10183;47.808;9.476;2022-08-21T12:58:34;29.40;75.90
20045;DHT22;10183;47.808;9.476;2022-08-21T13:01:02;30.90;76.70
20045;DHT22;10183;47.808;9.476;2022-08-21T13:03:30;32.50;71.10
20045;DHT22;10183;47.808;9.476;2022-08-21T13:05:58;28.00;78.70
20045;DHT22;10183;47.808;9.476;2022-08-21T13:08:26;27.20;92.50
20045;DHT22;10183;47.808;9.476;2022-08-21T13:11:05;27.20;87.80
20045;DHT22;10183;47.808;9.476;2022-08-21T13:13:32;27.30;82.00
20045;DHT22;10183;47.808;9.476;2022-08-21T13:16:05;30.30;86.80
20045;DHT22;10183;47.808;9.476;2022-08-21T13:18:36;33.90;70.00
20045;DHT22;10183;47.808;9.476;2022-08-21T13:21:13;36.10;60.20
20045;DHT22;10183;47.808;9.476;2022-08-21T13:23:41;38.20;52.00
20045;DHT22;10183;47.808;9.476;2022-08-21T13:26:25;39.00;48.20
20045;DHT22;10183;47.808;9.476;2022-08-21T13:28:51;37.60;48.90
20045;DHT22;10183;47.808;9.476;2022-08-21T13:31:27;37.10;46.60
20045;DHT22;10183;47.808;9.476;2022-08-21T13:33:56;38.80;46.60
20045;DHT22;10183;47.808;9.476;2022-08-21T13:36:32;40.80;44.70
20045;DHT22;10183;47.808;9.476;2022-08-21T13:38:59;42.60;38.20
20045;DHT22;10183;47.808;9.476;2022-08-21T13:41:29;43.50;36.80
20045;DHT22;10183;47.808;9.476;2022-08-21T13:43:59;34.70;40.00
20045;DHT22;10183;47.808;9.476;2022-08-21T13:46:36;30.50;53.50
20045;DHT22;10183;47.808;9.476;2022-08-21T13:49:17;34.50;53.50
20045;DHT22;10183;47.808;9.476;2022-08-21T13:51:44;37.70;45.70
20045;DHT22;10183;47.808;9.476;2022-08-21T13:56:47;42.30;38.00
20045;DHT22;10183;47.808;9.476;2022-08-21T13:59:34;43.70;35.30
20045;DHT22;10183;47.808;9.476;2022-08-21T14:07:19;39.60;36.50
20045;DHT22;10183;47.808;9.476;2022-08-21T14:09:47;37.60;39.10
20045;DHT22;10183;47.808;9.476;2022-08-21T14:12:16;36.80;41.40
20045;DHT22;10183;47.808;9.476;2022-08-21T14:14:44;36.80;43.40
20045;DHT22;10183;47.808;9.476;2022-08-21T14:17:14;34.70;42.40
20045;DHT22;10183;47.808;9.476;2022-08-21T14:19:45;29.10;51.80
20045;DHT22;10183;47.808;9.476;2022-08-21T14:24:50;25.40;85.40
20045;DHT22;10183;47.808;9.476;2022-08-21T14:27:24;24.90;92.70
20045;DHT22;10183;47.808;9.476;2022-08-21T14:29:50;25.80;92.70
20045;DHT22;10183;47.808;9.476;2022-08-21T14:32:27;26.50;82.70
20045;DHT22;10183;47.808;9.476;2022-08-21T14:34:56;26.90;80.60
20045;DHT22;10183;47.808;9.476;2022-08-21T14:37:23;29.40;75.80
20045;DHT22;10183;47.808;9.476;2022-08-21T14:39:50;32.60;64.70
20045;DHT22;10183;47.808;9.476;2022-08-21T14:42:16;34.40;55.80
20045;DHT22;10183;47.808;9.476;2022-08-21T14:44:42;35.50;51.80
20045;DHT22;10183;47.808;9.476;2022-08-21T14:47:09;37.30;47.40
20045;DHT22;10183;47.808;9.476;2022-08-21T14:49:35;38.80;41.80
20045;DHT22;10183;47.808;9.476;2022-08-21T14:52:04;40.30;39.40
20045;DHT22;10183;47.808;9.476;2022-08-21T14:54:31;42.10;37.20
20045;DHT22;10183;47.808;9.476;2022-08-21T14:57:02;43.40;33.70
20045;DHT22;10183;47.808;9.476;2022-08-21T14:59:30;43.40;31.70
20045;DHT22;10183;47.808;9.476;2022-08-21T15:01:57;44.30;31.10
20045;DHT22;10183;47.808;9.476;2022-08-21T15:04:24;45.20;29.90
20045;DHT22;10183;47.808;9.476;2022-08-21T15:06:50;44.50;29.70
20045;DHT22;10183;47.808;9.476;2022-08-21T15:09:16;43.00;32.00
20045;DHT22;10183;47.808;9.476;2022-08-21T15:11:43;40.20;32.50
20045;DHT22;10183;47.808;9.476;2022-08-21T15:14:18;37.90;35.00
20045;DHT22;10183;47.808;9.476;2022-08-21T15:16:45;37.60;38.60
20045;DHT22;10183;47.808;9.476;2022-08-21T15:19:12;39.00;35.40
20045;DHT22;10183;47.808;9.476;2022-08-21T15:21:38;40.70;33.30
20045;DHT22;10183;47.808;9.476;2022-08-21T15:24:04;42.20;32.00
20045;DHT22;10183;47.808;9.476;2022-08-21T15:26:30;43.40;30.40
20045;DHT22;10183;47.808;9.476;2022-08-21T15:28:57;44.10;30.80
20045;DHT22;10183;47.808;9.476;2022-08-21T15:31:24;44.30;29.00
20045;DHT22;10183;47.808;9.476;2022-08-21T15:33:51;44.70;27.90
20045;DHT22;10183;47.808;9.476;2022-08-21T15:36:17;45.20;28.70
20045;DHT22;10183;47.808;9.476;2022-08-21T15:38:44;44.00;28.10
20045;DHT22;10183;47.808;9.476;2022-08-21T15:41:11;44.00;28.60
20045;DHT22;10183;47.808;9.476;2022-08-21T15:43:51;44.40;28.50
20045;DHT22;10183;47.808;9.476;2022-08-21T15:46:19;44.50;28.40
20045;DHT22;10183;47.808;9.476;2022-08-21T15:48:46;44.10;27.90
20045;DHT22;10183;47.808;9.476;2022-08-21T15:51:14;44.10;27.70
20045;DHT22;10183;47.808;9.476;2022-08-21T15:53:40;42.80;26.10
20045;DHT22;10183;47.808;9.476;2022-08-21T15:56:23;42.30;28.50
20045;DHT22;10183;47.808;9.476;2022-08-21T15:58:51;42.90;28.30
20045;DHT22;10183;47.808;9.476;2022-08-21T16:01:20;43.00;27.90
20045;DHT22;10183;47.808;9.476;2022-08-21T16:03:49;42.90;28.30
20045;DHT22;10183;47.808;9.476;2022-08-21T16:06:16;40.90;29.40
20045;DHT22;10183;47.808;9.476;2022-08-21T16:08:42;42.10;29.30
20045;DHT22;10183;47.808;9.476;2022-08-21T16:11:11;42.70;27.90
20045;DHT22;10183;47.808;9.476;2022-08-21T16:13:40;41.40;29.30
20045;DHT22;10183;47.808;9.476;2022-08-21T16:16:11;42.10;28.50
20045;DHT22;10183;47.808;9.476;2022-08-21T16:18:38;42.60;28.50
20045;DHT22;10183;47.808;9.476;2022-08-21T16:21:06;43.00;27.90
20045;DHT22;10183;47.808;9.476;2022-08-21T16:23:36;42.90;28.40
20045;DHT22;10183;47.808;9.476;2022-08-21T16:26:05;42.70;28.00
20045;DHT22;10183;47.808;9.476;2022-08-21T16:28:35;42.60;28.70
20045;DHT22;10183;47.808;9.476;2022-08-21T16:31:02;42.10;27.70
20045;DHT22;10183;47.808;9.476;2022-08-21T16:33:37;42.00;28.60
20045;DHT22;10183;47.808;9.476;2022-08-21T16:36:05;41.10;29.10
20045;DHT22;10183;47.808;9.476;2022-08-21T16:38:32;39.40;30.10
20045;DHT22;10183;47.808;9.476;2022-08-21T16:40:59;37.80;31.30
20045;DHT22;10183;47.808;9.476;2022-08-21T16:43:28;36.50;32.50
20045;DHT22;10183;47.808;9.476;2022-08-21T16:45:56;35.10;36.00
20045;DHT22;10183;47.808;9.476;2022-08-21T16:48:23;33.90;37.50
20045;DHT22;10183;47.808;9.476;2022-08-21T16:50:49;32.90;38.80
20045;DHT22;10183;47.808;9.476;2022-08-21T16:53:16;31.90;42.00
20045;DHT22;10183;47.808;9.476;2022-08-21T16:55:42;31.00;43.00
20045;DHT22;10183;47.808;9.476;2022-08-21T16:58:34;30.20;44.10
20045;DHT22;10183;47.808;9.476;2022-08-21T17:01:04;29.80;45.50